Wood Heights, Missouri
Current Conditions -  °F | °C
As of 5:15 PM on Friday 31 Oct 2014 (Local Time) from KGPH Reporting Station
Clear Clear  
Wind Chill: 39°   Ceiling: Unl
Heat Index: 45°   Visibility: 10mi
Dew Point: 16°   Wind: 12mph
Humidity: 31%   Direction: 350°N
Pressure: 30.45"   Gusts: NA
Location:  39.3039°N, 94.2206°W
Report Text: KGPH 312215Z AUTO 35010KT 10SM CLR 07/M09 A3045 RMK AO2
Loading
Personal Weather Stations






























Interactive Weather Map
Tropical Storm Tracking
New forecast layout! Learn more

10-Day Weather Forecast

Advertisements
Track Severe Weather on mobile